createdAt,value
2023-01-25T00:00:30.544Z,0.50
2023-01-25T00:02:57.688Z,0.50
2023-01-25T00:05:24.834Z,0.50
2023-01-25T00:07:52.127Z,0.60
2023-01-25T00:10:20.102Z,0.60
2023-01-25T00:12:47.493Z,0.30
2023-01-25T00:15:15.110Z,0.50
2023-01-25T00:17:42.429Z,0.50
2023-01-25T00:20:10.141Z,0.30
2023-01-25T00:22:37.399Z,0.40
2023-01-25T00:25:04.760Z,0.40
2023-01-25T00:27:31.822Z,0.40
2023-01-25T00:29:58.894Z,0.50
2023-01-25T00:32:37.487Z,0.60
2023-01-25T00:35:04.977Z,0.50
2023-01-25T00:37:47.823Z,0.50
2023-01-25T00:40:14.900Z,0.50
2023-01-25T00:42:42.409Z,0.50
2023-01-25T00:45:12.313Z,0.50
2023-01-25T00:47:39.504Z,0.50
2023-01-25T00:50:08.414Z,0.60
2023-01-25T00:52:35.657Z,0.60
2023-01-25T00:55:03.102Z,0.40
2023-01-25T00:57:31.308Z,0.40
2023-01-25T00:59:58.422Z,0.40
2023-01-25T01:02:25.618Z,0.40
2023-01-25T01:04:52.811Z,0.40
2023-01-25T01:07:19.953Z,0.50
2023-01-25T01:09:47.160Z,0.40
2023-01-25T01:12:14.249Z,0.40
2023-01-25T01:14:41.325Z,0.40
2023-01-25T01:17:08.402Z,0.50
2023-01-25T01:19:35.677Z,0.40
2023-01-25T01:22:02.721Z,0.40
2023-01-25T01:24:29.849Z,0.60
2023-01-25T01:26:56.895Z,0.80
2023-01-25T01:29:24.092Z,0.80
2023-01-25T01:31:52.687Z,0.70
2023-01-25T01:34:20.332Z,0.70
2023-01-25T01:36:47.528Z,0.60
2023-01-25T01:39:14.990Z,0.40
2023-01-25T01:41:42.103Z,0.40
2023-01-25T01:44:52.041Z,0.50
2023-01-25T01:47:22.099Z,0.40
2023-01-25T01:49:55.859Z,0.40
2023-01-25T01:52:28.615Z,0.40
2023-01-25T01:55:14.930Z,0.50
2023-01-25T01:57:47.807Z,0.30
2023-01-25T02:00:29.188Z,0.30
2023-01-25T02:02:56.875Z,0.40
2023-01-25T02:06:10.112Z,0.40
2023-01-25T02:08:40.914Z,0.30
2023-01-25T02:11:09.221Z,0.30
2023-01-25T02:13:37.981Z,0.40
2023-01-25T02:16:05.682Z,0.30
2023-01-25T02:18:33.505Z,0.30
2023-01-25T02:21:02.228Z,0.30
2023-01-25T02:23:41.284Z,0.20
2023-01-25T02:26:08.514Z,0.30
2023-01-25T02:29:08.834Z,0.00
2023-01-25T02:31:36.382Z,0.00
2023-01-25T02:34:03.617Z,0.00
2023-01-25T02:36:33.559Z,0.10
2023-01-25T02:39:07.418Z,0.20
2023-01-25T02:41:39.791Z,0.10
2023-01-25T02:44:15.485Z,0.20
2023-01-25T02:46:45.216Z,0.20
2023-01-25T02:49:12.724Z,0.20
2023-01-25T02:51:43.152Z,0.10
2023-01-25T02:54:12.820Z,0.10
2023-01-25T02:56:43.347Z,0.20
2023-01-25T02:59:13.329Z,0.30
2023-01-25T03:01:42.338Z,0.20
2023-01-25T03:04:09.764Z,0.20
2023-01-25T03:06:37.400Z,0.30
2023-01-25T03:09:06.356Z,0.20
2023-01-25T03:11:34.163Z,0.20
2023-01-25T03:14:01.569Z,0.10
2023-01-25T03:16:30.592Z,0.30
2023-01-25T03:18:57.902Z,0.30
2023-01-25T03:21:25.147Z,0.20
2023-01-25T03:24:01.389Z,0.40
2023-01-25T03:26:29.382Z,0.00
2023-01-25T03:28:56.927Z,-0.10
2023-01-25T03:31:24.912Z,-0.20
2023-01-25T03:33:52.336Z,0.10
2023-01-25T03:36:20.064Z,0.10
2023-01-25T03:38:47.200Z,0.10
2023-01-25T03:41:15.089Z,0.10
2023-01-25T03:43:42.181Z,0.00
2023-01-25T03:46:09.450Z,0.10
2023-01-25T03:48:36.501Z,0.10
2023-01-25T03:51:03.566Z,0.10
2023-01-25T03:53:31.456Z,-0.10
2023-01-25T03:56:00.378Z,0.20
2023-01-25T03:58:28.276Z,0.10
2023-01-25T04:00:56.721Z,0.20
2023-01-25T04:03:25.272Z,0.00
2023-01-25T04:05:53.791Z,0.10
2023-01-25T04:08:21.469Z,0.10
2023-01-25T04:10:56.858Z,-0.10
2023-01-25T04:13:25.201Z,-0.20
2023-01-25T04:15:52.794Z,-0.10
2023-01-25T04:18:20.332Z,0.00
2023-01-25T04:20:52.755Z,0.10
2023-01-25T04:23:20.220Z,0.00
2023-01-25T04:26:01.629Z,0.20
2023-01-25T04:28:29.370Z,0.30
2023-01-25T04:30:57.411Z,0.10
2023-01-25T04:33:25.710Z,0.20
2023-01-25T04:35:52.839Z,0.10
2023-01-25T04:38:20.234Z,0.10
2023-01-25T04:40:47.293Z,0.00
2023-01-25T04:43:16.365Z,0.10
2023-01-25T04:45:43.491Z,0.10
2023-01-25T04:48:12.274Z,0.10
2023-01-25T04:50:40.808Z,0.30
2023-01-25T04:53:09.286Z,0.30
2023-01-25T04:55:36.634Z,0.30
2023-01-25T04:58:04.529Z,0.40
2023-01-25T05:00:32.648Z,0.40
2023-01-25T05:02:59.822Z,0.40
2023-01-25T05:05:26.945Z,0.30
2023-01-25T05:07:53.986Z,0.30
2023-01-25T05:10:21.388Z,0.20
2023-01-25T05:12:48.492Z,0.30
2023-01-25T05:15:15.544Z,0.10
2023-01-25T05:17:42.562Z,0.20
2023-01-25T05:20:10.543Z,0.10
2023-01-25T05:22:37.664Z,0.20
2023-01-25T05:25:06.467Z,0.10
2023-01-25T05:27:35.032Z,0.20
2023-01-25T05:30:02.028Z,0.20
2023-01-25T05:32:31.231Z,0.20
2023-01-25T05:34:59.999Z,0.10
2023-01-25T05:37:28.008Z,0.10
2023-01-25T05:39:55.032Z,0.20
2023-01-25T05:42:22.112Z,0.10
2023-01-25T05:44:49.121Z,0.00
2023-01-25T05:47:17.921Z,0.00
2023-01-25T05:49:45.171Z,0.00
2023-01-25T05:52:17.100Z,0.10
2023-01-25T05:54:44.865Z,0.20
2023-01-25T05:57:13.541Z,0.40
2023-01-25T05:59:40.653Z,0.10
2023-01-25T06:02:07.796Z,0.10
2023-01-25T06:04:35.006Z,0.30
2023-01-25T06:07:02.058Z,0.10
2023-01-25T06:09:29.106Z,0.40
2023-01-25T06:11:56.174Z,0.50
2023-01-25T06:14:23.987Z,0.60
2023-01-25T06:16:51.019Z,0.20
2023-01-25T06:19:18.470Z,0.50
2023-01-25T06:21:45.589Z,0.30
2023-01-25T06:24:12.809Z,0.30
2023-01-25T06:26:40.038Z,0.10
2023-01-25T06:29:07.438Z,0.10
2023-01-25T06:31:35.109Z,0.20
2023-01-25T06:34:04.740Z,0.00
2023-01-25T06:36:32.227Z,0.00
2023-01-25T06:38:59.506Z,0.00
2023-01-25T06:41:26.789Z,-0.20
2023-01-25T06:43:55.541Z,-0.10
2023-01-25T06:46:22.718Z,0.00
2023-01-25T06:48:49.915Z,0.00
2023-01-25T06:51:17.575Z,0.00
2023-01-25T06:53:47.068Z,-0.10
2023-01-25T06:56:17.989Z,-0.20
2023-01-25T06:58:45.952Z,-0.10
2023-01-25T07:01:21.978Z,0.00
2023-01-25T07:03:54.317Z,0.00
2023-01-25T07:06:22.282Z,0.10
2023-01-25T07:08:49.741Z,0.00
2023-01-25T07:11:19.143Z,0.30
2023-01-25T07:13:47.726Z,0.40
2023-01-25T07:16:20.061Z,0.10
2023-01-25T07:18:47.979Z,0.20
2023-01-25T07:21:22.905Z,0.00
2023-01-25T07:23:51.040Z,-0.20
2023-01-25T07:26:25.922Z,0.10
2023-01-25T07:28:53.941Z,0.00
2023-01-25T07:31:21.625Z,-0.20
2023-01-25T07:33:56.371Z,0.00
2023-01-25T07:36:24.386Z,-0.10
2023-01-25T07:38:58.522Z,-0.10
2023-01-25T07:41:26.273Z,-0.10
2023-01-25T07:43:53.784Z,-0.10
2023-01-25T07:46:21.441Z,0.20
2023-01-25T07:48:51.015Z,0.20
2023-01-25T07:51:23.326Z,0.10
2023-01-25T07:54:04.790Z,0.20
2023-01-25T07:56:38.585Z,0.10
2023-01-25T07:59:08.446Z,0.20
2023-01-25T08:01:37.099Z,0.20
2023-01-25T08:04:05.241Z,-0.20
2023-01-25T08:06:36.105Z,-0.10
2023-01-25T08:09:15.447Z,0.10
2023-01-25T08:11:43.031Z,0.20
2023-01-25T08:14:11.555Z,0.20
2023-01-25T08:16:38.989Z,0.40
2023-01-25T08:19:06.616Z,0.30
2023-01-25T08:21:36.111Z,0.40
2023-01-25T08:24:05.934Z,0.30
2023-01-25T08:26:34.714Z,0.00
2023-01-25T08:29:02.282Z,0.00
2023-01-25T08:31:31.734Z,-0.10
2023-01-25T08:33:59.516Z,0.10
2023-01-25T08:36:28.268Z,0.30
2023-01-25T08:39:07.799Z,0.40
2023-01-25T08:41:36.343Z,0.30
2023-01-25T08:44:03.900Z,0.40
2023-01-25T08:46:33.291Z,0.30
2023-01-25T08:49:05.658Z,0.20
2023-01-25T08:51:33.736Z,0.10
2023-01-25T08:54:08.694Z,0.00
2023-01-25T08:56:38.410Z,-0.10
2023-01-25T08:59:06.277Z,0.00
2023-01-25T09:01:33.976Z,0.00
2023-01-25T09:04:01.213Z,0.20
2023-01-25T09:06:28.388Z,0.30
2023-01-25T09:08:56.019Z,0.30
2023-01-25T09:11:23.478Z,0.40
2023-01-25T09:13:50.899Z,0.50
2023-01-25T09:16:27.552Z,0.10
2023-01-25T09:18:57.008Z,-0.20
2023-01-25T09:21:24.318Z,-0.20
2023-01-25T09:24:08.806Z,-0.10
2023-01-25T09:26:39.341Z,-0.10
2023-01-25T09:29:08.379Z,-0.20
2023-01-25T09:31:37.364Z,-0.30
2023-01-25T09:34:04.595Z,-0.50
2023-01-25T09:36:31.763Z,-0.30
2023-01-25T09:38:58.941Z,-0.20
2023-01-25T09:42:00.826Z,-0.20
2023-01-25T09:44:39.253Z,0.10
2023-01-25T09:47:21.328Z,-0.10
2023-01-25T09:50:06.723Z,-0.20
2023-01-25T09:52:58.224Z,-0.50
2023-01-25T09:55:29.750Z,-0.40
2023-01-25T09:58:00.723Z,-0.50
2023-01-25T10:00:36.386Z,-0.40
2023-01-25T10:03:22.373Z,-0.60
2023-01-25T10:05:58.115Z,-0.60
2023-01-25T10:08:31.430Z,-0.60
2023-01-25T10:11:45.514Z,-0.50
2023-01-25T10:14:18.298Z,-0.30
2023-01-25T10:16:54.035Z,-0.40
2023-01-25T10:19:32.489Z,-0.50
2023-01-25T10:22:29.963Z,-0.60
2023-01-25T10:25:26.616Z,-0.50
2023-01-25T10:28:11.883Z,-0.70
2023-01-25T10:30:55.557Z,-0.40
2023-01-25T10:33:22.842Z,-0.50
2023-01-25T10:35:50.874Z,-0.40
2023-01-25T10:38:27.819Z,-0.50
2023-01-25T10:41:03.654Z,-0.70
2023-01-25T10:43:31.174Z,-0.40
2023-01-25T10:45:58.338Z,-0.20
2023-01-25T10:48:31.363Z,-0.30
2023-01-25T10:50:58.306Z,-0.20
2023-01-25T10:53:37.289Z,-0.20
2023-01-25T10:56:07.291Z,-0.50
2023-01-25T10:58:40.240Z,-0.30
2023-01-25T11:01:24.118Z,-0.20
2023-01-25T11:03:51.457Z,-0.50
2023-01-25T11:06:29.764Z,-0.50
2023-01-25T11:08:56.920Z,-0.60
2023-01-25T11:11:27.188Z,-0.30
2023-01-25T11:13:55.442Z,-0.40
2023-01-25T11:16:39.250Z,-0.10
2023-01-25T11:19:40.682Z,-0.30
2023-01-25T11:22:20.133Z,-0.40
2023-01-25T11:24:47.631Z,-0.40
2023-01-25T11:27:26.698Z,-0.40
2023-01-25T11:30:06.254Z,-0.40
2023-01-25T11:32:33.964Z,-0.40
2023-01-25T11:35:01.269Z,-0.50
2023-01-25T11:37:48.918Z,-0.40
2023-01-25T11:40:29.235Z,-0.20
2023-01-25T11:43:00.151Z,-0.30
2023-01-25T11:45:33.128Z,-0.20
2023-01-25T11:48:18.687Z,-0.30
2023-01-25T11:51:08.684Z,-0.30
2023-01-25T11:53:41.672Z,-0.40
2023-01-25T11:56:08.491Z,-0.40
2023-01-25T11:58:41.452Z,-0.50
2023-01-25T12:01:27.043Z,-0.50
2023-01-25T12:04:17.777Z,-0.30
2023-01-25T12:07:01.225Z,-0.30
2023-01-25T12:09:50.650Z,-0.30
2023-01-25T12:12:26.624Z,-0.30
2023-01-25T12:15:12.663Z,-0.30
2023-01-25T12:18:01.123Z,-0.30
2023-01-25T12:20:49.499Z,-0.20
2023-01-25T12:23:32.168Z,-0.20
2023-01-25T12:26:20.450Z,-0.50
2023-01-25T12:28:47.521Z,-0.30
2023-01-25T12:31:17.634Z,-0.30
2023-01-25T12:34:09.216Z,-0.20
2023-01-25T12:36:38.548Z,-0.40
2023-01-25T12:39:16.791Z,-0.20
2023-01-25T12:42:28.833Z,-0.40
2023-01-25T12:45:13.278Z,-0.30
2023-01-25T12:48:02.272Z,-0.20
2023-01-25T12:50:29.263Z,-0.30
2023-01-25T12:53:38.893Z,-0.20
2023-01-25T12:56:19.824Z,0.00
2023-01-25T12:58:59.879Z,0.00
2023-01-25T13:01:45.261Z,-0.10
2023-01-25T13:04:41.518Z,-0.30
2023-01-25T13:07:20.207Z,-0.10
2023-01-25T13:09:52.876Z,-0.30
2023-01-25T13:12:20.940Z,-0.10
2023-01-25T13:14:48.306Z,-0.30
2023-01-25T13:17:38.422Z,-0.30
2023-01-25T13:20:47.834Z,-0.40
2023-01-25T13:23:34.741Z,-0.30
2023-01-25T13:26:28.469Z,-0.40
2023-01-25T13:28:58.346Z,-0.30
2023-01-25T13:31:51.641Z,-0.40
2023-01-25T13:34:40.397Z,-0.30
2023-01-25T13:37:31.159Z,-0.40
2023-01-25T13:40:23.182Z,-0.40
2023-01-25T13:43:20.732Z,-0.40
2023-01-25T13:45:51.049Z,-0.40
2023-01-25T13:48:22.107Z,-0.50
2023-01-25T13:50:59.348Z,-0.40
2023-01-25T13:53:29.639Z,-0.40
2023-01-25T13:55:58.506Z,-0.40
2023-01-25T13:58:34.548Z,-0.40
2023-01-25T14:01:13.578Z,-0.50
2023-01-25T14:03:50.163Z,-0.40
2023-01-25T14:06:22.328Z,-0.40
2023-01-25T14:08:50.037Z,-0.40
2023-01-25T14:11:26.106Z,-0.50
2023-01-25T14:14:01.043Z,-0.50
2023-01-25T14:16:30.615Z,-0.40
2023-01-25T14:19:20.770Z,-0.50
2023-01-25T14:21:48.904Z,-0.50
2023-01-25T14:24:19.270Z,-0.60
2023-01-25T14:26:47.593Z,-0.60
2023-01-25T14:29:36.421Z,-0.60
2023-01-25T14:32:04.411Z,-0.60
2023-01-25T14:34:31.848Z,-0.60
2023-01-25T14:37:20.890Z,-0.60
2023-01-25T14:39:49.963Z,-0.60
2023-01-25T14:42:18.586Z,-0.60
2023-01-25T14:44:46.271Z,-0.60
2023-01-25T14:47:41.121Z,-0.90
2023-01-25T14:50:38.752Z,-0.70
2023-01-25T14:53:18.751Z,-0.70
2023-01-25T14:55:49.455Z,-0.90
2023-01-25T14:58:23.779Z,-0.70
2023-01-25T15:00:55.223Z,-0.80
2023-01-25T15:03:23.282Z,-0.70
2023-01-25T15:05:50.452Z,-0.90
2023-01-25T15:08:35.859Z,-0.90
2023-01-25T15:11:21.776Z,-1.00
2023-01-25T15:13:49.124Z,-0.80
2023-01-25T15:16:16.733Z,-0.90
2023-01-25T15:18:48.370Z,-0.90
2023-01-25T15:21:20.103Z,-0.60
2023-01-25T15:23:49.294Z,-0.80
2023-01-25T15:26:26.169Z,-0.80
2023-01-25T15:28:56.188Z,-0.70
2023-01-25T15:31:29.136Z,-0.80
2023-01-25T15:33:57.471Z,-0.70
2023-01-25T15:36:24.903Z,-0.60
2023-01-25T15:38:52.111Z,-0.70
2023-01-25T15:41:19.351Z,-0.70
2023-01-25T15:43:47.139Z,-0.80
2023-01-25T15:46:22.010Z,-0.70
2023-01-25T15:48:50.632Z,-0.80
2023-01-25T15:51:18.466Z,-0.80
2023-01-25T15:53:47.030Z,-0.80
2023-01-25T15:56:19.856Z,-0.70
2023-01-25T15:58:53.964Z,-0.70
2023-01-25T16:01:23.217Z,-0.80
2023-01-25T16:03:51.076Z,-0.90
2023-01-25T16:06:46.043Z,-0.80
2023-01-25T16:09:19.253Z,-1.10
2023-01-25T16:11:48.531Z,-0.80
2023-01-25T16:14:15.680Z,-0.80
2023-01-25T16:16:50.998Z,-0.90
2023-01-25T16:19:21.419Z,-0.90
2023-01-25T16:21:49.414Z,-0.90
2023-01-25T16:24:17.468Z,-0.90
2023-01-25T16:26:49.629Z,-0.80
2023-01-25T16:29:16.871Z,-0.80
2023-01-25T16:31:44.057Z,-1.00
2023-01-25T16:34:11.133Z,-0.90
2023-01-25T16:36:39.632Z,-0.90
2023-01-25T16:39:15.735Z,-0.80
2023-01-25T16:41:42.749Z,-0.90
2023-01-25T16:44:09.832Z,-0.90
2023-01-25T16:46:37.084Z,-0.90
2023-01-25T16:49:09.044Z,-1.00
2023-01-25T16:51:37.147Z,-1.00
2023-01-25T16:54:04.464Z,-0.90
2023-01-25T16:56:33.408Z,-1.00
2023-01-25T16:59:05.303Z,-1.00
2023-01-25T17:01:32.919Z,-1.00
2023-01-25T17:04:00.106Z,-1.00
2023-01-25T17:06:33.521Z,-1.00
2023-01-25T17:09:12.588Z,-1.00
2023-01-25T17:11:48.156Z,-1.10
2023-01-25T17:14:16.994Z,-1.00
2023-01-25T17:16:45.221Z,-1.00
2023-01-25T17:19:17.122Z,-1.10
2023-01-25T17:21:45.257Z,-1.10
2023-01-25T17:24:18.418Z,-1.10
2023-01-25T17:26:45.591Z,-1.00
2023-01-25T17:29:13.826Z,-1.10
2023-01-25T17:31:42.326Z,-1.20
2023-01-25T17:34:16.322Z,-1.00
2023-01-25T17:36:44.427Z,-1.10
2023-01-25T17:39:16.454Z,-1.20
2023-01-25T17:41:48.738Z,-1.10
2023-01-25T17:44:21.466Z,-1.10
2023-01-25T17:46:49.836Z,-1.10
2023-01-25T17:49:17.805Z,-1.10
2023-01-25T17:51:45.421Z,-1.20
2023-01-25T17:54:13.354Z,-1.20
2023-01-25T17:56:40.773Z,-1.10
2023-01-25T17:59:11.851Z,-1.20
2023-01-25T18:01:39.487Z,-1.20
2023-01-25T18:04:08.703Z,-1.20
2023-01-25T18:06:36.855Z,-1.20
2023-01-25T18:09:08.396Z,-1.20
2023-01-25T18:11:36.949Z,-1.20
2023-01-25T18:14:08.341Z,-1.30
2023-01-25T18:16:38.829Z,-1.30
2023-01-25T18:19:06.813Z,-1.30
2023-01-25T18:21:34.661Z,-1.40
2023-01-25T18:24:06.108Z,-1.40
2023-01-25T18:26:35.698Z,-1.20
2023-01-25T18:29:08.993Z,-1.30
2023-01-25T18:31:36.129Z,-1.30
2023-01-25T18:34:03.307Z,-1.50
2023-01-25T18:36:30.353Z,-1.50
2023-01-25T18:38:58.354Z,-1.50
2023-01-25T18:41:25.547Z,-1.50
2023-01-25T18:43:52.643Z,-1.40
2023-01-25T18:46:19.736Z,-1.50
2023-01-25T18:48:47.391Z,-1.50
2023-01-25T18:51:17.560Z,-1.60
2023-01-25T18:53:49.391Z,-1.40
2023-01-25T18:56:21.139Z,-1.60
2023-01-25T18:58:50.167Z,-1.50
2023-01-25T19:01:18.492Z,-1.50
2023-01-25T19:03:46.712Z,-1.60
2023-01-25T19:06:14.234Z,-1.60
2023-01-25T19:08:43.388Z,-1.60
2023-01-25T19:11:15.968Z,-1.60
2023-01-25T19:13:44.205Z,-1.70
2023-01-25T19:16:17.376Z,-1.70
2023-01-25T19:18:47.093Z,-1.60
2023-01-25T19:21:17.749Z,-1.60
2023-01-25T19:23:44.881Z,-1.60
2023-01-25T19:26:14.506Z,-1.70
2023-01-25T19:28:42.214Z,-1.60
2023-01-25T19:31:15.078Z,-1.70
2023-01-25T19:33:42.411Z,-1.70
2023-01-25T19:36:15.578Z,-1.70
2023-01-25T19:38:43.289Z,-1.70
2023-01-25T19:41:15.716Z,-1.60
2023-01-25T19:43:43.805Z,-1.60
2023-01-25T19:46:12.143Z,-1.70
2023-01-25T19:48:40.499Z,-1.70
2023-01-25T19:51:14.276Z,-1.80
2023-01-25T19:53:46.533Z,-1.70
2023-01-25T19:56:18.007Z,-1.70
2023-01-25T19:58:46.699Z,-1.70
2023-01-25T20:01:16.224Z,-1.70
2023-01-25T20:03:44.052Z,-1.70
2023-01-25T20:06:13.030Z,-1.70
2023-01-25T20:08:42.373Z,-1.70
2023-01-25T20:11:17.715Z,-1.70
2023-01-25T20:13:44.881Z,-1.60
2023-01-25T20:16:13.494Z,-1.70
2023-01-25T20:18:40.674Z,-1.70
2023-01-25T20:21:13.691Z,-1.60
2023-01-25T20:23:43.239Z,-1.80
2023-01-25T20:26:16.288Z,-1.80
2023-01-25T20:28:44.828Z,-1.80
2023-01-25T20:31:25.662Z,-1.70
2023-01-25T20:33:55.800Z,-1.80
2023-01-25T20:36:23.820Z,-1.70
2023-01-25T20:38:51.420Z,-1.80
2023-01-25T20:41:19.026Z,-1.70
2023-01-25T20:44:04.533Z,-1.60
2023-01-25T20:46:34.729Z,-1.10
2023-01-25T20:49:02.368Z,-1.70
2023-01-25T20:51:29.678Z,-1.70
2023-01-25T20:53:57.578Z,-1.70
2023-01-25T20:56:24.869Z,-1.70
2023-01-25T20:58:52.848Z,-1.70
2023-01-25T21:01:29.790Z,-1.70
2023-01-25T21:03:58.360Z,-1.70
2023-01-25T21:06:27.203Z,-1.60
2023-01-25T21:08:54.796Z,-1.70
2023-01-25T21:11:23.328Z,-1.70
2023-01-25T21:13:50.382Z,-1.70
2023-01-25T21:16:21.735Z,-1.60
2023-01-25T21:18:51.810Z,-1.70
2023-01-25T21:21:21.545Z,-1.70
2023-01-25T21:23:50.430Z,-1.70
2023-01-25T21:26:26.008Z,-1.70
2023-01-25T21:28:56.972Z,-1.40
2023-01-25T21:31:29.671Z,-1.70
2023-01-25T21:33:56.763Z,-1.70
2023-01-25T21:36:23.910Z,-1.70
2023-01-25T21:38:52.650Z,-1.80
2023-01-25T21:41:22.521Z,-1.80
2023-01-25T21:44:08.320Z,-1.70
2023-01-25T21:46:36.060Z,-1.70
2023-01-25T21:49:24.210Z,-1.60
2023-01-25T21:51:53.559Z,-1.80
2023-01-25T21:54:26.265Z,-1.70
2023-01-25T21:56:55.624Z,-1.70
2023-01-25T21:59:23.303Z,-1.70
2023-01-25T22:01:51.236Z,-1.80
2023-01-25T22:04:21.301Z,-1.20
2023-01-25T22:06:48.955Z,-1.70
2023-01-25T22:09:16.321Z,-1.70
2023-01-25T22:11:45.961Z,-1.80
2023-01-25T22:14:19.470Z,-1.80
2023-01-25T22:16:47.169Z,-1.80
2023-01-25T22:19:14.516Z,-1.80
2023-01-25T22:21:41.683Z,-1.80
2023-01-25T22:24:11.431Z,-1.80
2023-01-25T22:27:17.464Z,-1.70
2023-01-25T22:29:44.561Z,-1.80
2023-01-25T22:32:11.622Z,-1.90
2023-01-25T22:34:38.831Z,-1.90
2023-01-25T22:37:05.864Z,-1.90
2023-01-25T22:39:32.902Z,-1.90
2023-01-25T22:42:00.123Z,-2.00
2023-01-25T22:44:27.202Z,-1.90
2023-01-25T22:46:54.201Z,-2.00
2023-01-25T22:49:21.227Z,-2.00
2023-01-25T22:51:48.368Z,-2.00
2023-01-25T22:54:15.455Z,-2.00
2023-01-25T22:56:42.536Z,-2.00
2023-01-25T22:59:12.143Z,-2.00
2023-01-25T23:01:39.227Z,-2.00
2023-01-25T23:04:06.307Z,-2.00
2023-01-25T23:06:36.760Z,-2.10
2023-01-25T23:09:06.438Z,-2.00
2023-01-25T23:11:37.567Z,-2.00
2023-01-25T23:14:25.529Z,-2.10
2023-01-25T23:16:52.856Z,-2.10
2023-01-25T23:19:38.971Z,-2.10
2023-01-25T23:22:06.755Z,-2.10
2023-01-25T23:24:33.783Z,-2.10
2023-01-25T23:27:00.814Z,-2.10
2023-01-25T23:29:28.078Z,-2.10
2023-01-25T23:31:55.258Z,-2.10
2023-01-25T23:34:22.334Z,-2.10
2023-01-25T23:36:49.396Z,-2.00
2023-01-25T23:39:16.504Z,-2.10
2023-01-25T23:41:43.552Z,-2.00
2023-01-25T23:44:10.636Z,-2.00
2023-01-25T23:46:37.777Z,-2.10
2023-01-25T23:49:04.844Z,-2.00
2023-01-25T23:51:31.978Z,-2.00
2023-01-25T23:53:59.142Z,-2.00
2023-01-25T23:56:26.214Z,-2.00
2023-01-25T23:58:53.348Z,-2.10
